FLUGWETTER MÜNCHEN AIRPORT

[source: ADDS]
METAR
EDDM 242220Z 08001KT CAVOK 05/01 Q1009 NOSIG =
TAF
TAF EDDM 241700Z 2418/2524 24005KT CAVOK TEMPO 2418/2424 VRB03KT PROB30 TEMPO 2505/2516 27015G25KT SHRA SCT050TCU BECMG 2508/2510 26010KT BECMG 2516/2518 32005KT RA BKN012 =
SR / SS: 04:04 / 18:19 UTC (Tag 2017-04-25)

QR-Code dieser Seite

QR-Code dieser Seite